Flight Track Log - Related Links

Times and Time Zones

All times are in EDT time to prevent confusion due to time zone crossing. See the DAL4165 flight status page for this flight to view local times or setup timezone preferences in your user account.

Time Position Orientation Groundspeed Altitude Reporting Facility
EDT Latitude Longitude Course Direction KTS MPH feet Rate Location/Type
Thu 07:12:30 PM 35.3414 -97.5458 134° Southeast 147 169 4,700  Level Fort Worth Center
Thu 07:13:30 PM 35.3478 -97.4594 85° East 181 208 6,600 1,900 Climbing Fort Worth Center
Thu 07:14:00 PM 35.4001 -96.9948 90° East  Level FlightAware Approximate
Thu 07:14:30 PM 35.3542 -97.3550 86° East 249 287 8,500  Level Fort Worth Center
Thu 07:15:00 PM 35.4000 -96.8432 90° East  Level FlightAware Approximate
Thu 07:15:30 PM 35.3644 -97.2278 84° East 294 338 10,100  Level Fort Worth Center
Thu 07:16:00 PM 35.4000 -96.6917 90° East  Level FlightAware Approximate
Thu 07:16:30 PM 35.3642 -97.0903 90° East 360 414 11,800  Level Fort Worth Center
Thu 07:17:30 PM 35.3658 -96.9503 89° East 385 443 13,700 1,800 Climbing Fort Worth Center
Thu 07:18:30 PM 35.3692 -96.8025 88° East 412 474 15,400 1,650 Climbing Fort Worth Center
Thu 07:19:30 PM 35.3728 -96.6525 88° East 427 491 17,000 1,450 Climbing Fort Worth Center
Thu 07:20:30 PM 35.3736 -96.4969 90° East 445 512 18,300 1,400 Climbing Fort Worth Center
Thu 07:21:30 PM 35.3744 -96.3367 90° East 456 525 19,800 1,500 Climbing Fort Worth Center
Thu 07:22:30 PM 35.3772 -96.1736 89° East 467 537 21,300 1,400 Climbing Fort Worth Center
Thu 07:23:30 PM 35.3817 -96.0106 88° East 473 544 22,600 1,200 Climbing Fort Worth Center
Thu 07:24:30 PM 35.3839 -95.8503 89° East 478 550 23,700 950 Climbing Fort Worth Center
Thu 07:25:30 PM 35.3861 -95.6822 89° East 478 550 24,500 750 Climbing Fort Worth Center
Thu 07:26:30 PM 35.3878 -95.5114 89° East 478 550 25,200 750 Climbing Fort Worth Center
Thu 07:27:46 PM 35.3886 -95.3131 90° East 483 556 26,200 750 Climbing Memphis Center
Thu 07:28:46 PM 35.3872 -95.1372 91° East 496 571 26,900 800 Climbing Memphis Center
Thu 07:29:46 PM 35.3878 -94.9592 90° East 513 590 27,800 1,000 Climbing Memphis Center
Thu 07:30:46 PM 35.3878 -94.7808 90° East 518 596 28,900 1,050 Climbing Memphis Center
Thu 07:31:46 PM 35.3878 -94.6000 90° East 524 603 29,900 950 Climbing Memphis Center
Thu 07:32:46 PM 35.3878 -94.4167 90° East 524 603 30,800 900 Climbing Memphis Center
Thu 07:33:46 PM 35.3853 -94.2306 91° East 535 616 31,700 800 Climbing Memphis Center
Thu 07:34:46 PM 35.3700 -94.0464 96° East 541 623 32,400 706 Climbing Memphis Center
Thu 07:35:45 PM 35.3586 -93.8653 94° East 541 623 33,100 706 Climbing Memphis Center
Thu 07:36:45 PM 35.3431 -93.6764 96° East 541 623 33,800 744 Climbing Memphis Center
Thu 07:37:46 PM 35.3311 -93.4925 94° East 541 623 34,600 600 Climbing Memphis Center
Thu 07:38:45 PM 35.3172 -93.2911 95° East 536 617 35,000 202 Climbing Memphis Center
Thu 07:39:45 PM 35.3028 -93.0972 95° East 552 635 35,000  Level Memphis Center
Thu 07:40:45 PM 35.2861 -92.9033 96° East 560 644 35,000  Level Memphis Center
Thu 07:41:46 PM 35.2692 -92.7044 96° East 566 651 35,000  Level Memphis Center
Thu 07:42:45 PM 35.2539 -92.5108 95° East 578 665 35,000  Level Memphis Center
Thu 07:43:46 PM 35.2361 -92.3197 96° East 578 665 35,000  Level Memphis Center
Thu 07:44:46 PM 35.2203 -92.1261 96° East 578 665 35,000  Level Memphis Center
Thu 07:45:45 PM 35.2039 -91.9325 96° East 578 665 35,000  Level Memphis Center
Thu 07:46:46 PM 35.1853 -91.7417 97° East 578 665 35,000  Level Memphis Center
Thu 07:47:45 PM 35.1708 -91.5458 95° East 578 665 35,000  Level Memphis Center
Thu 07:48:45 PM 35.1533 -91.3933 98° East 578 665 35,000  Level Memphis Center
Thu 07:49:45 PM 35.1361 -91.1644 95° East 566 651 35,000  Level Memphis Center
Thu 07:50:45 PM 35.1164 -90.9739 97° East 566 651 35,000  Level Memphis Center
Thu 07:51:46 PM 35.1006 -90.7986 96° East 566 651 35,000  Level Memphis Center
Thu 07:52:45 PM 35.0822 -90.6083 97° East 566 651 35,000  Level Memphis Center
Thu 07:53:45 PM 35.0594 -90.4156 98° East 571 657 35,000  Level Memphis Center
Thu 07:54:46 PM 35.0428 -90.2278 96° East 577 664 35,000  Level Memphis Center
Thu 07:55:46 PM 35.0236 -90.0350 97° East 577 664 35,000  Level Memphis Center
Thu 07:56:46 PM 34.9978 -89.8197 98° East 577 664 35,000  Level Memphis Center
Thu 07:57:46 PM 34.9675 -89.6172 100° East 583 671 35,000  Level Memphis Center
Thu 07:58:45 PM 34.9350 -89.4325 102° East 583 671 35,000  Level Memphis Center
Thu 07:59:45 PM 34.9064 -89.2403 100° East 575 662 35,000  Level Memphis Center
Thu 08:00:46 PM 34.8797 -89.0711 101° East 570 656 35,000  Level Memphis Center
Thu 08:01:45 PM 34.8503 -88.8792 101° East 565 650 35,000  Level Memphis Center
Thu 08:02:46 PM 34.8208 -88.6900 101° East 571 657 35,000  Level Memphis Center
Thu 08:03:45 PM 34.7931 -88.5008 100° East 571 657 35,000  Level Memphis Center
Thu 08:04:45 PM 34.7611 -88.3197 102° East 555 639 35,000  Level Memphis Center
Thu 08:05:45 PM 34.7283 -88.1183 101° East 578 665 35,000  Level Memphis Center
Thu 08:06:45 PM 34.6972 -87.9119 100° East 585 673 35,000 -508 Level Memphis Center
Thu 08:09:41 PM 34.6072 -87.3600 101° East 574 661 33,000 -508 Descending Atlanta Center
Thu 08:10:41 PM 34.5686 -87.1667 104° East 579 666 33,000  Level Atlanta Center
Thu 08:11:41 PM 34.5372 -86.9992 103° East 579 666 33,000 -250 Level Atlanta Center
Thu 08:12:41 PM 34.5000 -86.8064 103° East 579 666 32,500 -850 Descending Atlanta Center
Thu 08:13:41 PM 34.4622 -86.6161 103° East 574 661 31,300 -1,350 Descending Atlanta Center
Thu 08:14:41 PM 34.4244 -86.4236 103° East 574 661 29,800 -1,550 Descending Atlanta Center
Thu 08:15:41 PM 34.3903 -86.2414 103° East 568 654 28,200 -1,550 Descending Atlanta Center
Thu 08:16:41 PM 34.3536 -86.0617 104° East 557 641 26,700 2,400 Descending Atlanta Center
Thu 08:17:41 PM 34.3189 -85.8850 103° East 544 626 33,000 -2,050 Climbing Atlanta Center
Thu 08:18:41 PM 34.2858 -85.7106 103° East 531 611 22,600 -6,250 Descending Atlanta Center
Thu 08:19:41 PM 34.2525 -85.5442 104° East 520 598 20,500 -2,100 Descending Atlanta Center
Thu 08:20:41 PM 34.2189 -85.3828 104° East 495 570 18,400 -2,000 Descending Atlanta Center
Thu 08:21:41 PM 34.1872 -85.2342 104° East 465 535 16,500 -2,000 Descending Atlanta Center
Thu 08:22:41 PM 34.1406 -85.0856 111° Southeast 447 514 14,400 -1,250 Descending Atlanta Center
Thu 08:23:41 PM 34.0558 -84.9792 134° Southeast 420 483 14,000 -850 Descending Atlanta Center
Thu 08:24:41 PM 33.9750 -84.8806 135° Southeast 420 483 12,700 -1,000 Descending Atlanta Center
Thu 08:25:41 PM 33.8944 -84.7797 134° Southeast 420 483 12,000 -438 Descending Atlanta Center
Thu 08:26:17 PM 33.8500 -84.7167 130° Southeast 410 472 12,000  Level Atlanta TRACON
Thu 08:27:23 PM 33.7833 -84.6167 129° Southeast 319 367 12,000 -381 Level Atlanta TRACON
Thu 08:28:23 PM 33.7333 -84.5500 132° Southeast 282 325 11,200 -1,400 Descending Atlanta TRACON
Thu 08:29:23 PM 33.7333 -84.4500 90° East 271 312 9,200 -2,100 Descending Atlanta TRACON
Thu 08:30:23 PM 33.7333 -84.3667 90° East 247 284 7,000 -2,281 Descending Atlanta TRACON
Thu 08:31:24 PM 33.7333 -84.3000 90° East 227 261 4,600 -2,150 Descending Atlanta TRACON
Thu 08:32:23 PM 33.6833 -84.2667 151° Southeast 235 270 2,700 -1,932 Descending Atlanta TRACON

Login

Don't have an account? Register now (free) for customized features, flight alerts, and more!